Terminal Aerodrome Forecast
Issued by NWS Tampa Bay Area, FL

Home | Current Version | Previous Version | Text Only | Print | Product List | Glossary On
Versions: 1 2 3 4 5 6 7 8 9 10 11 12
000
FTUS42 KTBW 010500
TAFFMY
TAF
KFMY 010532Z 0106/0206 08005KT P6SM SCT250
     FM011400 13012G18KT P6SM SCT030 SCT250
     FM011700 15012G18KT P6SM SCT040 SCT250
     FM012000 17012G18KT P6SM SCT050 SCT250
     FM012300 16006KT P6SM SCT050 SCT250=

USA.gov is the U.S. government's official web portal to all federal, state and local government web resources and services.